Latest Weather Observations for Perth Airport

IDW60801

Issued at 8:33 am WST Wednesday 16 January 2019 (issued every 10 minutes, with the page automatically refreshed every 10 minutes)

About weather observations | Map of weather stations | Latest weather observations for WA | Other Formats
Station Details ID: 009021 Name: PERTH AIRPORT Lat: -31.93 Lon: 115.98 Height: 15.4 m
Data from the previous 72 hours. | See also: Recent months at Perth Airport
Date/Time
WST
Temp
°C
App
Temp
°C
Dew
Point
°C
Rel
Hum
%
Delta-T
°C
Wind Press
QNH
hPa
Press
MSL
hPa
Rain since
9am
mm
Dir  Spd
km/h
Gust
km/h
Spd
kts
Gust
kts
16/08:00am 20.7 19.0 11.1 54 5.3 SE 11 19 6 10 1012.3 1012.2 0.0
16/07:30am 19.3 16.7 10.6 57 4.7 S 15 22 8 12 1012.5 1012.4 0.0
16/07:00am 18.4 16.1 10.4 59 4.3 S 13 19 7 10 1012.2 1012.1 0.0
16/06:30am 17.1 14.8 10.5 65 3.5 S 13 17 7 9 1012.1 1012.0 0.0
16/06:00am 15.9 13.3 10.6 71 2.8 S 15 19 8 10 1011.7 1011.6 0.0
16/05:30am 15.9 12.9 10.6 71 2.8 S 17 22 9 12 1011.5 1011.4 0.0
16/05:00am 16.4 13.8 10.6 68 3.1 SSW 15 19 8 10 1011.1 1011.0 0.0
16/04:30am 16.9 13.9 10.7 67 3.3 SSW 17 20 9 11 1010.7 1010.6 0.0
16/04:00am 14.7 12.2 11.1 79 1.9 SW 15 19 8 10 1010.5 1010.4 0.0
16/03:30am 15.8 14.5 11.1 73 2.5 SSW 9 13 5 7 1010.0 1009.9 0.0
16/03:00am 15.5 13.4 11.2 75 2.3 SSW 13 17 7 9 1010.2 1010.1 0.0
16/02:30am 17.0 13.8 11.1 68 3.2 SSW 19 24 10 13 1010.5 1010.4 0.0
16/02:00am 17.3 13.8 11.0 66 3.4 S 20 24 11 13 1010.4 1010.3 0.0
16/01:30am 17.7 13.8 10.8 64 3.7 S 22 28 12 15 1010.5 1010.4 0.0
16/01:00am 18.3 14.4 10.9 62 4.0 SSW 22 28 12 15 1010.6 1010.5 0.0
16/12:30am 18.8 14.5 10.9 60 4.3 SSW 24 37 13 20 1010.6 1010.5 0.0
16/12:00am 19.3 15.9 11.3 60 4.4 SSW 20 28 11 15 1010.8 1010.7 0.0
 
Date/Time
WST
Temp
°C
App
Temp
°C
Dew
Point
°C
Rel
Hum
%
Delta-T
°C
Wind Press
QNH
hPa
Press
MSL
hPa
Rain since
9am
mm
Dir  Spd
km/h
Gust
km/h
Spd
kts
Gust
kts
15/11:30pm 19.7 15.7 11.8 60 4.4 SSW 24 33 13 18 1010.8 1010.7 0.0
15/11:00pm 20.1 17.3 12.7 62 4.2 SSW 19 26 10 14 1010.9 1010.8 0.0
15/10:30pm 20.3 17.7 13.3 64 4.0 SW 19 28 10 15 1010.8 1010.7 0.0
15/10:00pm 20.3 17.9 13.9 66 3.7 SSW 19 22 10 12 1011.0 1010.9 0.0
15/09:30pm 20.5 18.0 14.1 66 3.7 SW 20 26 11 14 1010.9 1010.8 0.0
15/09:00pm 20.6 17.3 14.0 66 3.8 SW 24 32 13 17 1010.8 1010.7 0.0
15/08:30pm 20.7 17.4 14.0 65 3.9 SW 24 30 13 16 1010.7 1010.6 0.0
15/08:00pm 21.1 17.8 13.9 63 4.2 SW 24 35 13 19 1010.4 1010.3 0.0
15/07:30pm 21.5 17.0 13.7 61 4.5 SW 30 39 16 21 1010.3 1010.2 0.0
15/07:00pm 22.5 17.5 13.3 56 5.3 SW 32 37 17 20 1010.1 1010.0 0.0
15/06:30pm 23.5 19.2 13.1 52 6.0 SW 28 35 15 19 1010.1 1010.0 0.0
15/06:00pm 24.2 19.8 12.8 49 6.6 SW 28 37 15 20 1010.0 1009.9 0.0
15/05:30pm 25.2 20.4 12.8 46 7.2 SW 30 39 16 21 1009.9 1009.8 0.0
15/05:00pm 26.0 20.7 12.5 43 7.8 SW 32 41 17 22 1009.8 1009.7 0.0
15/04:30pm 26.7 21.7 13.5 44 7.8 SW 32 44 17 24 1009.7 1009.6 0.0
15/04:00pm 26.4 21.2 12.9 43 7.9 SW 32 39 17 21 1009.8 1009.7 0.0
15/03:30pm 27.3 22.1 12.8 40 8.5 WSW 32 41 17 22 1009.8 1009.7 0.0
15/03:00pm 27.1 21.2 12.5 40 8.5 SW 35 46 19 25 1009.9 1009.8 0.0
15/02:30pm 27.7 22.6 13.1 40 8.6 SW 32 41 17 22 1009.8 1009.7 0.0
15/02:00pm 28.9 23.6 13.0 37 9.4 SW 33 39 18 21 1009.8 1009.7 0.0
15/01:30pm 27.2 22.9 13.3 42 8.2 W 28 39 15 21 1010.0 1009.9 0.0
15/01:00pm 29.1 26.1 12.4 35 9.8 W 20 37 11 20 1010.2 1010.1 0.0
15/12:30pm 29.4 26.9 10.9 31 10.6 SSW 15 22 8 12 1010.7 1010.6 0.0
15/12:00pm 28.3 26.1 10.9 34 9.9 SW 13 22 7 12 1011.1 1011.0 0.0
15/11:30am 27.4 26.3 10.8 35 9.4 SE 7 15 4 8 1011.4 1011.3 0.0
15/11:00am 27.2 25.7 10.7 35 9.3 S 9 19 5 10 1011.8 1011.7 0.0
15/10:30am 25.7 23.3 10.2 37 8.6 SE 13 24 7 13 1012.1 1012.0 0.0
15/10:00am 24.7 21.5 10.0 39 8.1 ESE 17 35 9 19 1012.4 1012.3 0.0
15/09:30am 23.5 21.2 10.5 43 7.2 SE 13 20 7 11 1012.8 1012.7 0.0
15/09:00am 22.5 19.4 10.3 46 6.7 E 17 28 9 15 1013.1 1013.0 0.0
15/08:30am 21.7 17.3 10.3 48 6.2 E 24 32 13 17 1013.3 1013.2 0.0
15/08:00am 20.4 18.4 10.0 51 5.6 SE 11 15 6 8 1013.2 1013.1 0.0
15/07:30am 19.6 17.2 10.1 54 5.1 ESE 13 19 7 10 1013.2 1013.1 0.0
15/07:00am 18.4 15.2 9.9 57 4.5 ESE 17 28 9 15 1013.2 1013.1 0.0
15/06:30am 17.5 15.5 10.2 62 3.9 ESE 11 17 6 9 1013.1 1013.0 0.0
15/06:00am 16.9 14.8 9.9 63 3.7 ESE 11 17 6 9 1012.5 1012.4 0.0
15/05:30am 16.2 14.3 10.6 69 3.0 ESE 11 17 6 9 1012.0 1011.9 0.0
15/05:00am 17.5 14.7 9.9 61 4.0 SE 15 20 8 11 1011.7 1011.6 0.0
15/04:30am 16.7 14.8 10.5 67 3.3 SE 11 19 6 10 1011.5 1011.4 0.0
15/04:00am 16.3 14.1 10.7 69 3.0 SSE 13 17 7 9 1011.1 1011.0 0.0
15/03:30am 18.5 15.0 10.3 59 4.4 S 19 26 10 14 1011.0 1010.9 0.0
15/03:00am 19.1 15.8 9.7 54 5.0 S 17 20 9 11 1010.9 1010.8 0.0
15/02:30am 18.9 16.5 10.1 56 4.7 SW 13 17 7 9 1010.9 1010.8 0.0
15/02:00am 18.3 15.8 11.1 63 3.9 SSW 15 19 8 10 1011.1 1011.0 0.0
15/01:30am 18.3 15.9 11.3 63 3.8 SW 15 17 8 9 1011.4 1011.3 0.0
15/01:00am 18.2 16.3 11.8 66 3.5 S 13 15 7 8 1011.5 1011.4 0.0
15/12:30am 19.1 16.4 11.7 62 4.1 SSW 17 24 9 13 1011.7 1011.6 0.0
15/12:00am 19.6 16.6 12.5 63 4.0 SSW 20 26 11 14 1011.9 1011.8 0.0
 
Date/Time
WST
Temp
°C
App
Temp
°C
Dew
Point
°C
Rel
Hum
%
Delta-T
°C
Wind Press
QNH
hPa
Press
MSL
hPa
Rain since
9am
mm
Dir  Spd
km/h
Gust
km/h
Spd
kts
Gust
kts
14/11:30pm 20.0 16.4 13.1 64 3.9 SSW 24 32 13 17 1012.1 1012.0 0.0
14/11:00pm 20.3 18.4 14.1 67 3.6 SSW 17 22 9 12 1012.3 1012.2 0.0
14/10:30pm 20.5 18.9 14.9 70 3.3 SSW 17 20 9 11 1012.5 1012.4 0.0
14/10:00pm 20.7 19.1 15.1 70 3.3 SSW 17 20 9 11 1012.6 1012.5 0.0
14/09:30pm 20.7 19.2 15.3 71 3.2 SSW 17 24 9 13 1012.5 1012.4 0.0
14/09:00pm 20.8 17.9 15.0 69 3.4 SW 24 32 13 17 1012.3 1012.2 0.0
14/08:30pm 21.2 18.0 13.0 59 4.7 SW 22 30 12 16 1012.2 1012.1 0.0
14/08:00pm 21.6 17.6 13.0 58 4.9 SW 26 32 14 17 1012.0 1011.9 0.0
14/07:30pm 22.4 17.8 12.4 53 5.7 SW 28 35 15 19 1011.6 1011.5 0.0
14/07:00pm 23.0 17.7 12.5 51 6.0 SW 32 37 17 20 1011.5 1011.4 0.0
14/06:30pm 23.8 19.3 13.9 54 5.8 SW 30 39 16 21 1011.4 1011.3 0.0
14/06:00pm 24.5 19.9 13.4 50 6.5 SW 30 37 16 20 1011.1 1011.0 0.0
14/05:30pm 25.7 20.6 13.0 45 7.4 SW 32 39 17 21 1010.9 1010.8 0.0
14/05:00pm 26.8 22.4 13.0 42 8.1 SW 28 35 15 19 1010.9 1010.8 0.0
14/04:30pm 27.5 23.1 13.0 40 8.5 SW 28 37 15 20 1010.9 1010.8 0.0
14/04:00pm 27.5 22.8 13.3 41 8.4 SW 30 41 16 22 1010.9 1010.8 0.0
14/03:30pm 28.7 23.7 13.4 39 9.1 SW 32 37 17 20 1010.8 1010.7 0.0
14/03:00pm 28.6 24.4 13.5 39 9.0 SW 28 37 15 20 1011.0 1010.9 0.0
14/02:30pm 29.0 25.0 14.2 40 8.9 WSW 28 35 15 19 1011.2 1011.1 0.0
14/02:00pm 28.0 24.6 14.8 44 8.0 W 26 39 14 21 1011.2 1011.1 0.0
14/01:30pm 28.4 24.7 15.1 44 8.1 WSW 28 35 15 19 1011.3 1011.2 0.0
14/01:00pm 28.0 24.7 15.0 45 7.9 W 26 33 14 18 1011.6 1011.5 0.0
14/12:30pm 27.7 24.6 15.6 47 7.4 W 26 35 14 19 1011.9 1011.8 0.0
14/12:00pm 29.8 27.3 14.0 38 9.5 W 20 32 11 17 1012.1 1012.0 0.0
14/11:30am 29.3 28.6 13.3 37 9.5 SSW 9 19 5 10 1012.5 1012.4 0.0
14/11:00am 28.5 27.8 13.3 39 9.0 WNW 9 15 5 8 1012.8 1012.7 0.0
14/10:30am 27.8 27.6 13.7 42 8.4 S 7 9 4 5 1013.1 1013.0 0.0
14/10:00am 26.4 26.1 13.3 44 7.7 E 7 17 4 9 1013.6 1013.5 0.0
14/09:30am 25.6 24.4 12.9 45 7.4 SSW 11 17 6 9 1013.8 1013.7 0.0
14/09:00am 24.6 23.9 13.3 49 6.6 SSE 9 15 5 8 1014.0 1013.9 0.0
14/08:30am 23.5 22.5 13.5 53 5.8 SSW 11 17 6 9 1014.1 1014.0 0.0
14/08:00am 22.7 21.1 14.0 58 5.1 S 15 19 8 10 1014.4 1014.3 0.0
14/07:30am 22.1 20.4 13.6 58 4.9 S 15 19 8 10 1014.6 1014.5 0.0
14/07:00am 21.6 21.1 13.8 61 4.5 S 9 15 5 8 1014.6 1014.5 0.0
14/06:30am 20.1 19.3 14.0 68 3.5 SE 11 15 6 8 1014.4 1014.3 0.0
14/06:00am 19.3 18.9 14.1 72 3.0 S 9 13 5 7 1014.3 1014.2 0.0
14/05:30am 17.6 16.8 14.1 80 2.0 S 11 15 6 8 1014.1 1014.0 0.0
14/05:00am 17.9 17.8 13.9 77 2.3 SE 7 13 4 7 1013.7 1013.6 0.0
14/04:30am 19.2 17.2 14.0 72 3.0 SSE 17 24 9 13 1013.6 1013.5 0.0
14/04:00am 20.4 18.4 13.8 66 3.8 ESE 17 30 9 16 1013.3 1013.2 0.0
14/03:30am 20.5 18.4 13.7 65 3.9 SE 17 26 9 14 1013.4 1013.3 0.0
14/03:00am 20.6 18.9 13.6 64 4.0 SSE 15 19 8 10 1013.4 1013.3 0.0
14/02:30am 20.7 19.5 14.0 65 3.9 SSW 13 17 7 9 1013.4 1013.3 0.0
14/02:00am 19.6 19.1 14.8 74 2.8 SSW 11 15 6 8 1013.5 1013.4 0.0
14/01:30am 19.9 18.7 15.0 73 2.9 S 15 19 8 10 1013.8 1013.7 0.0
14/01:00am 20.2 17.6 14.9 71 3.1 S 22 28 12 15 1014.2 1014.1 0.0
14/12:30am 20.5 17.6 15.1 71 3.2 S 24 32 13 17 1014.3 1014.2 0.0
14/12:00am 20.9 17.6 15.1 69 3.4 S 26 32 14 17 1014.4 1014.3 0.0
 
Date/Time
WST
Temp
°C
App
Temp
°C
Dew
Point
°C
Rel
Hum
%
Delta-T
°C
Wind Press
QNH
hPa
Press
MSL
hPa
Rain since
9am
mm
Dir  Spd
km/h
Gust
km/h
Spd
kts
Gust
kts
13/11:30pm 21.3 18.1 15.2 68 3.6 S 26 33 14 18 1014.4 1014.3 0.0
13/11:00pm 21.7 18.2 15.5 68 3.7 SSW 28 35 15 19 1014.4 1014.3 0.0
13/10:30pm 22.0 19.0 15.8 68 3.7 SSW 26 37 14 20 1014.5 1014.4 0.0
13/10:00pm 22.3 20.5 16.0 67 3.8 SSW 20 28 11 15 1014.5 1014.4 0.0
13/09:30pm 22.2 20.2 16.4 69 3.5 SSW 22 28 12 15 1014.3 1014.2 0.0
13/09:00pm 22.4 20.1 16.7 70 3.5 SW 24 32 13 17 1014.1 1014.0 0.0
13/08:30pm 22.5 20.0 17.0 71 3.4 SW 26 35 14 19 1014.0 1013.9 0.0
13/08:00pm 22.9 19.9 16.7 68 3.8 SW 28 37 15 20 1013.8 1013.7 0.0
13/07:30pm 23.4 21.6 16.9 67 4.0 SW 22 30 12 16 1013.6 1013.5 0.0
13/07:00pm 24.2 22.1 17.1 64 4.4 SW 24 32 13 17 1013.2 1013.1 0.0
13/06:30pm 25.2 23.0 16.8 59 5.2 SW 24 30 13 16 1012.9 1012.8 0.0
13/06:00pm 25.5 22.5 16.8 58 5.4 WSW 28 37 15 20 1012.7 1012.6 0.0
13/05:30pm 25.9 22.5 16.7 57 5.7 WSW 30 39 16 21 1012.5 1012.4 0.0
13/05:00pm 26.3 22.5 16.8 56 5.9 WSW 32 41 17 22 1012.4 1012.3 0.0
13/04:30pm 26.3 22.6 17.0 56 5.8 WSW 32 43 17 23 1012.5 1012.4 0.0
13/04:00pm 26.4 22.5 16.5 54 6.1 SW 32 43 17 23 1012.4 1012.3 0.0
13/03:30pm 27.5 23.9 16.2 50 7.0 WSW 30 39 16 21 1012.5 1012.4 0.0
13/03:00pm 27.5 23.7 15.8 48 7.2 SW 30 41 16 22 1012.6 1012.5 0.0
13/02:30pm 28.1 23.9 15.7 46 7.6 WSW 32 37 17 20 1012.6 1012.5 0.0
13/02:00pm 27.3 23.8 15.5 48 7.2 WSW 28 41 15 22 1012.8 1012.7 0.0
13/01:30pm 28.0 24.4 15.2 45 7.8 WSW 28 35 15 19 1012.9 1012.8 0.0
13/01:00pm 27.3 23.6 14.9 46 7.5 WSW 28 37 15 20 1013.1 1013.0 0.0
13/12:30pm 27.6 24.2 14.7 45 7.8 WSW 26 39 14 21 1013.1 1013.0 0.0
13/12:00pm 27.7 23.8 14.4 44 8.0 WSW 28 37 15 20 1013.2 1013.1 0.0
13/11:30am 26.7 22.7 14.1 46 7.5 WSW 28 37 15 20 1013.3 1013.2 0.0
13/11:00am 27.1 22.6 13.8 44 7.9 WSW 30 43 16 23 1013.4 1013.3 0.0
13/10:30am 28.0 21.9 9.7 31 10.2 SSW 32 39 17 21 1013.4 1013.3 0.0
13/10:00am 26.3 19.9 8.6 32 9.6 SSW 32 39 17 21 1013.6 1013.5 0.0
13/09:30am 25.2 19.2 7.1 31 9.5 SSW 28 39 15 21 1013.7 1013.6 0.0
13/09:00am 24.0 18.3 11.1 44 7.2 SSW 32 41 17 22 1013.8 1013.7 0.0

Other Formats:

Comma delimited format used in spreadsheet applications
http://www.bom.gov.au/fwo/IDW60801/IDW60801.94610.axf

JavaScript Object Notation format (JSON) in row-major order
http://www.bom.gov.au/fwo/IDW60801/IDW60801.94610.json